sensor_id;sensor_type;location;lat;lon;timestamp;pressure;altitude;pressure_sealevel;temperature
20289;BMP180;10303;51.960;8.372;2024-01-16T00:00:10;99409.00;;;3.20
20289;BMP180;10303;51.960;8.372;2024-01-16T00:02:36;99402.00;;;3.10
20289;BMP180;10303;51.960;8.372;2024-01-16T00:05:02;99396.00;;;3.10
20289;BMP180;10303;51.960;8.372;2024-01-16T00:07:28;99403.00;;;3.20
20289;BMP180;10303;51.960;8.372;2024-01-16T00:09:54;99416.00;;;3.10
20289;BMP180;10303;51.960;8.372;2024-01-16T00:12:20;99414.00;;;3.20
20289;BMP180;10303;51.960;8.372;2024-01-16T00:14:46;99417.00;;;3.00
20289;BMP180;10303;51.960;8.372;2024-01-16T00:17:12;99428.00;;;3.10
20289;BMP180;10303;51.960;8.372;2024-01-16T00:19:38;99413.00;;;2.80
20289;BMP180;10303;51.960;8.372;2024-01-16T00:22:04;99421.00;;;2.80
20289;BMP180;10303;51.960;8.372;2024-01-16T00:24:31;99433.00;;;2.70
20289;BMP180;10303;51.960;8.372;2024-01-16T00:26:57;99438.00;;;2.60
20289;BMP180;10303;51.960;8.372;2024-01-16T00:29:23;99438.00;;;2.70
20289;BMP180;10303;51.960;8.372;2024-01-16T00:31:49;99439.00;;;2.80
20289;BMP180;10303;51.960;8.372;2024-01-16T00:34:15;99448.00;;;2.50
20289;BMP180;10303;51.960;8.372;2024-01-16T00:36:41;99447.00;;;2.50
20289;BMP180;10303;51.960;8.372;2024-01-16T00:39:07;99445.00;;;2.60
20289;BMP180;10303;51.960;8.372;2024-01-16T00:41:34;99446.00;;;2.70
20289;BMP180;10303;51.960;8.372;2024-01-16T00:43:59;99459.00;;;2.90
20289;BMP180;10303;51.960;8.372;2024-01-16T00:46:25;99446.00;;;2.80
20289;BMP180;10303;51.960;8.372;2024-01-16T00:48:51;99444.00;;;2.70
20289;BMP180;10303;51.960;8.372;2024-01-16T00:51:17;99453.00;;;2.70
20289;BMP180;10303;51.960;8.372;2024-01-16T00:53:44;99459.00;;;2.80
20289;BMP180;10303;51.960;8.372;2024-01-16T00:56:10;99455.00;;;2.90
20289;BMP180;10303;51.960;8.372;2024-01-16T00:58:38;99456.00;;;2.70
20289;BMP180;10303;51.960;8.372;2024-01-16T01:01:04;99453.00;;;3.00
20289;BMP180;10303;51.960;8.372;2024-01-16T01:03:30;99445.00;;;2.90
20289;BMP180;10303;51.960;8.372;2024-01-16T01:05:57;99460.00;;;2.90
20289;BMP180;10303;51.960;8.372;2024-01-16T01:08:23;99453.00;;;2.90
20289;BMP180;10303;51.960;8.372;2024-01-16T01:10:49;99466.00;;;2.80
20289;BMP180;10303;51.960;8.372;2024-01-16T01:13:15;99468.00;;;2.90
20289;BMP180;10303;51.960;8.372;2024-01-16T01:15:41;99463.00;;;2.90
20289;BMP180;10303;51.960;8.372;2024-01-16T01:18:07;99483.00;;;2.90
20289;BMP180;10303;51.960;8.372;2024-01-16T01:20:33;99466.00;;;3.00
20289;BMP180;10303;51.960;8.372;2024-01-16T01:22:59;99500.00;;;3.00
20289;BMP180;10303;51.960;8.372;2024-01-16T01:25:25;99489.00;;;3.10
20289;BMP180;10303;51.960;8.372;2024-01-16T01:27:52;99492.00;;;3.00
20289;BMP180;10303;51.960;8.372;2024-01-16T01:30:18;99496.00;;;3.20
20289;BMP180;10303;51.960;8.372;2024-01-16T01:32:44;99502.00;;;3.30
20289;BMP180;10303;51.960;8.372;2024-01-16T01:35:10;99497.00;;;3.40
20289;BMP180;10303;51.960;8.372;2024-01-16T01:37:37;99498.00;;;3.50
20289;BMP180;10303;51.960;8.372;2024-01-16T01:40:04;99507.00;;;3.50
20289;BMP180;10303;51.960;8.372;2024-01-16T01:42:30;99511.00;;;3.50
20289;BMP180;10303;51.960;8.372;2024-01-16T01:44:56;99504.00;;;3.40
20289;BMP180;10303;51.960;8.372;2024-01-16T01:47:22;99506.00;;;3.20
20289;BMP180;10303;51.960;8.372;2024-01-16T01:49:49;99519.00;;;3.30
20289;BMP180;10303;51.960;8.372;2024-01-16T01:52:15;99512.00;;;3.40
20289;BMP180;10303;51.960;8.372;2024-01-16T01:54:44;99522.00;;;3.40
20289;BMP180;10303;51.960;8.372;2024-01-16T01:57:11;99526.00;;;3.30
20289;BMP180;10303;51.960;8.372;2024-01-16T01:59:37;99533.00;;;3.30
20289;BMP180;10303;51.960;8.372;2024-01-16T02:02:04;99521.00;;;3.20
20289;BMP180;10303;51.960;8.372;2024-01-16T02:04:31;99524.00;;;3.20
20289;BMP180;10303;51.960;8.372;2024-01-16T02:06:58;99538.00;;;3.10
20289;BMP180;10303;51.960;8.372;2024-01-16T02:09:24;99532.00;;;3.30
20289;BMP180;10303;51.960;8.372;2024-01-16T02:11:50;99529.00;;;3.30
20289;BMP180;10303;51.960;8.372;2024-01-16T02:14:16;99533.00;;;3.30
20289;BMP180;10303;51.960;8.372;2024-01-16T02:16:42;99535.00;;;3.30
20289;BMP180;10303;51.960;8.372;2024-01-16T02:19:10;99545.00;;;3.40
20289;BMP180;10303;51.960;8.372;2024-01-16T02:21:44;99533.00;;;3.30
20289;BMP180;10303;51.960;8.372;2024-01-16T02:24:12;99536.00;;;3.30
20289;BMP180;10303;51.960;8.372;2024-01-16T02:26:39;99532.00;;;3.20
20289;BMP180;10303;51.960;8.372;2024-01-16T02:29:05;99537.00;;;3.30
20289;BMP180;10303;51.960;8.372;2024-01-16T02:31:34;99536.00;;;3.40
20289;BMP180;10303;51.960;8.372;2024-01-16T02:34:01;99532.00;;;3.40
20289;BMP180;10303;51.960;8.372;2024-01-16T02:36:28;99547.00;;;3.20
20289;BMP180;10303;51.960;8.372;2024-01-16T02:38:55;99532.00;;;3.20
20289;BMP180;10303;51.960;8.372;2024-01-16T02:41:21;99536.00;;;3.30
20289;BMP180;10303;51.960;8.372;2024-01-16T02:43:47;99539.00;;;3.40
20289;BMP180;10303;51.960;8.372;2024-01-16T02:46:16;99533.00;;;3.20
20289;BMP180;10303;51.960;8.372;2024-01-16T02:48:43;99548.00;;;3.20
20289;BMP180;10303;51.960;8.372;2024-01-16T02:51:09;99542.00;;;3.10
20289;BMP180;10303;51.960;8.372;2024-01-16T02:53:35;99538.00;;;3.20
20289;BMP180;10303;51.960;8.372;2024-01-16T02:56:01;99538.00;;;3.20
20289;BMP180;10303;51.960;8.372;2024-01-16T02:58:28;99535.00;;;3.20
20289;BMP180;10303;51.960;8.372;2024-01-16T03:00:55;99564.00;;;3.20
20289;BMP180;10303;51.960;8.372;2024-01-16T03:03:21;99569.00;;;3.30
20289;BMP180;10303;51.960;8.372;2024-01-16T03:05:48;99570.00;;;3.30
20289;BMP180;10303;51.960;8.372;2024-01-16T03:08:14;99562.00;;;3.40
20289;BMP180;10303;51.960;8.372;2024-01-16T03:10:40;99564.00;;;3.30
20289;BMP180;10303;51.960;8.372;2024-01-16T03:13:06;99563.00;;;3.40
20289;BMP180;10303;51.960;8.372;2024-01-16T03:15:32;99548.00;;;3.40
20289;BMP180;10303;51.960;8.372;2024-01-16T03:17:58;99568.00;;;3.30
20289;BMP180;10303;51.960;8.372;2024-01-16T03:20:26;99568.00;;;3.30
20289;BMP180;10303;51.960;8.372;2024-01-16T03:22:52;99566.00;;;3.10
20289;BMP180;10303;51.960;8.372;2024-01-16T03:25:19;99570.00;;;3.20
20289;BMP180;10303;51.960;8.372;2024-01-16T03:27:45;99565.00;;;3.10
20289;BMP180;10303;51.960;8.372;2024-01-16T03:30:11;99555.00;;;3.20
20289;BMP180;10303;51.960;8.372;2024-01-16T03:32:38;99568.00;;;3.20
20289;BMP180;10303;51.960;8.372;2024-01-16T03:35:05;99571.00;;;3.20
20289;BMP180;10303;51.960;8.372;2024-01-16T03:37:32;99570.00;;;3.30
20289;BMP180;10303;51.960;8.372;2024-01-16T03:39:59;99568.00;;;3.20
20289;BMP180;10303;51.960;8.372;2024-01-16T03:42:25;99571.00;;;3.20
20289;BMP180;10303;51.960;8.372;2024-01-16T03:44:50;99570.00;;;3.20
20289;BMP180;10303;51.960;8.372;2024-01-16T03:47:17;99578.00;;;3.20
20289;BMP180;10303;51.960;8.372;2024-01-16T03:49:43;99587.00;;;3.30
20289;BMP180;10303;51.960;8.372;2024-01-16T03:52:09;99581.00;;;3.30
20289;BMP180;10303;51.960;8.372;2024-01-16T03:54:35;99586.00;;;3.40
20289;BMP180;10303;51.960;8.372;2024-01-16T03:57:01;99575.00;;;3.40
20289;BMP180;10303;51.960;8.372;2024-01-16T03:59:27;99578.00;;;3.40
20289;BMP180;10303;51.960;8.372;2024-01-16T04:01:53;99581.00;;;3.50
20289;BMP180;10303;51.960;8.372;2024-01-16T04:04:19;99575.00;;;3.50
20289;BMP180;10303;51.960;8.372;2024-01-16T04:06:46;99580.00;;;3.50
20289;BMP180;10303;51.960;8.372;2024-01-16T04:09:12;99585.00;;;3.50
20289;BMP180;10303;51.960;8.372;2024-01-16T04:11:40;99575.00;;;3.50
20289;BMP180;10303;51.960;8.372;2024-01-16T04:14:06;99586.00;;;3.40
20289;BMP180;10303;51.960;8.372;2024-01-16T04:16:32;99575.00;;;3.40
20289;BMP180;10303;51.960;8.372;2024-01-16T04:18:58;99587.00;;;3.40
20289;BMP180;10303;51.960;8.372;2024-01-16T04:21:25;99581.00;;;3.40
20289;BMP180;10303;51.960;8.372;2024-01-16T04:23:51;99587.00;;;3.30
20289;BMP180;10303;51.960;8.372;2024-01-16T04:26:17;99584.00;;;3.40
20289;BMP180;10303;51.960;8.372;2024-01-16T04:28:43;99571.00;;;3.40
20289;BMP180;10303;51.960;8.372;2024-01-16T04:31:10;99587.00;;;3.40
20289;BMP180;10303;51.960;8.372;2024-01-16T04:33:38;99583.00;;;3.40
20289;BMP180;10303;51.960;8.372;2024-01-16T04:36:05;99581.00;;;3.40
20289;BMP180;10303;51.960;8.372;2024-01-16T04:38:32;99577.00;;;3.40
20289;BMP180;10303;51.960;8.372;2024-01-16T04:41:04;99581.00;;;3.20
20289;BMP180;10303;51.960;8.372;2024-01-16T04:43:30;99586.00;;;3.20
20289;BMP180;10303;51.960;8.372;2024-01-16T04:45:56;99578.00;;;3.30
20289;BMP180;10303;51.960;8.372;2024-01-16T04:48:22;99582.00;;;3.40
20289;BMP180;10303;51.960;8.372;2024-01-16T04:50:48;99576.00;;;3.40
20289;BMP180;10303;51.960;8.372;2024-01-16T04:53:14;99569.00;;;3.50
20289;BMP180;10303;51.960;8.372;2024-01-16T04:55:40;99576.00;;;3.40
20289;BMP180;10303;51.960;8.372;2024-01-16T04:58:07;99570.00;;;3.40
20289;BMP180;10303;51.960;8.372;2024-01-16T05:00:33;99573.00;;;3.30
20289;BMP180;10303;51.960;8.372;2024-01-16T05:02:59;99566.00;;;3.40
20289;BMP180;10303;51.960;8.372;2024-01-16T05:05:25;99575.00;;;3.50
20289;BMP180;10303;51.960;8.372;2024-01-16T05:07:51;99564.00;;;3.50
20289;BMP180;10303;51.960;8.372;2024-01-16T05:10:17;99564.00;;;3.50
20289;BMP180;10303;51.960;8.372;2024-01-16T05:12:43;99571.00;;;3.50
20289;BMP180;10303;51.960;8.372;2024-01-16T05:15:10;99560.00;;;3.50
20289;BMP180;10303;51.960;8.372;2024-01-16T05:17:40;99565.00;;;3.50
20289;BMP180;10303;51.960;8.372;2024-01-16T05:20:07;99562.00;;;3.60
20289;BMP180;10303;51.960;8.372;2024-01-16T05:22:33;99550.00;;;3.60
20289;BMP180;10303;51.960;8.372;2024-01-16T05:25:00;99554.00;;;3.60
20289;BMP180;10303;51.960;8.372;2024-01-16T05:27:26;99554.00;;;3.70
20289;BMP180;10303;51.960;8.372;2024-01-16T05:29:52;99552.00;;;3.70
20289;BMP180;10303;51.960;8.372;2024-01-16T05:32:18;99563.00;;;3.60
20289;BMP180;10303;51.960;8.372;2024-01-16T05:34:45;99569.00;;;3.70
20289;BMP180;10303;51.960;8.372;2024-01-16T05:37:11;99561.00;;;3.70
20289;BMP180;10303;51.960;8.372;2024-01-16T05:39:37;99553.00;;;3.70
20289;BMP180;10303;51.960;8.372;2024-01-16T05:42:04;99555.00;;;3.70
20289;BMP180;10303;51.960;8.372;2024-01-16T05:44:30;99564.00;;;3.70
20289;BMP180;10303;51.960;8.372;2024-01-16T05:46:56;99564.00;;;3.50
20289;BMP180;10303;51.960;8.372;2024-01-16T05:49:22;99567.00;;;3.60
20289;BMP180;10303;51.960;8.372;2024-01-16T05:51:48;99550.00;;;3.70
20289;BMP180;10303;51.960;8.372;2024-01-16T05:54:14;99550.00;;;3.70
20289;BMP180;10303;51.960;8.372;2024-01-16T05:56:40;99570.00;;;3.70
20289;BMP180;10303;51.960;8.372;2024-01-16T05:59:07;99549.00;;;3.70
20289;BMP180;10303;51.960;8.372;2024-01-16T06:01:33;99549.00;;;3.70
20289;BMP180;10303;51.960;8.372;2024-01-16T06:03:59;99567.00;;;3.70
20289;BMP180;10303;51.960;8.372;2024-01-16T06:06:25;99560.00;;;3.70
20289;BMP180;10303;51.960;8.372;2024-01-16T06:08:52;99557.00;;;3.70
20289;BMP180;10303;51.960;8.372;2024-01-16T06:11:18;99571.00;;;3.70
20289;BMP180;10303;51.960;8.372;2024-01-16T06:13:45;99554.00;;;3.70
20289;BMP180;10303;51.960;8.372;2024-01-16T06:16:11;99567.00;;;3.70
20289;BMP180;10303;51.960;8.372;2024-01-16T06:18:37;99557.00;;;3.70
20289;BMP180;10303;51.960;8.372;2024-01-16T06:21:03;99575.00;;;3.70
20289;BMP180;10303;51.960;8.372;2024-01-16T06:23:29;99568.00;;;3.70
20289;BMP180;10303;51.960;8.372;2024-01-16T06:25:56;99572.00;;;3.70
20289;BMP180;10303;51.960;8.372;2024-01-16T06:28:22;99565.00;;;3.70
20289;BMP180;10303;51.960;8.372;2024-01-16T06:30:47;99585.00;;;3.70
20289;BMP180;10303;51.960;8.372;2024-01-16T06:33:13;99580.00;;;3.70
20289;BMP180;10303;51.960;8.372;2024-01-16T06:35:39;99583.00;;;3.70
20289;BMP180;10303;51.960;8.372;2024-01-16T06:38:05;99585.00;;;3.80
20289;BMP180;10303;51.960;8.372;2024-01-16T06:40:31;99575.00;;;3.70
20289;BMP180;10303;51.960;8.372;2024-01-16T06:42:57;99582.00;;;3.60
20289;BMP180;10303;51.960;8.372;2024-01-16T06:45:23;99578.00;;;3.50
20289;BMP180;10303;51.960;8.372;2024-01-16T06:47:51;99567.00;;;3.60
20289;BMP180;10303;51.960;8.372;2024-01-16T06:50:17;99577.00;;;3.60
20289;BMP180;10303;51.960;8.372;2024-01-16T06:52:43;99580.00;;;3.70
20289;BMP180;10303;51.960;8.372;2024-01-16T06:55:09;99581.00;;;3.80
20289;BMP180;10303;51.960;8.372;2024-01-16T06:57:35;99574.00;;;3.70
20289;BMP180;10303;51.960;8.372;2024-01-16T07:00:01;99568.00;;;3.70
20289;BMP180;10303;51.960;8.372;2024-01-16T07:02:27;99566.00;;;3.80
20289;BMP180;10303;51.960;8.372;2024-01-16T07:04:52;99579.00;;;3.80
20289;BMP180;10303;51.960;8.372;2024-01-16T07:07:18;99576.00;;;3.90
20289;BMP180;10303;51.960;8.372;2024-01-16T07:09:46;99580.00;;;3.90
20289;BMP180;10303;51.960;8.372;2024-01-16T07:12:12;99576.00;;;3.90
20289;BMP180;10303;51.960;8.372;2024-01-16T07:14:38;99584.00;;;3.90
20289;BMP180;10303;51.960;8.372;2024-01-16T07:17:05;99582.00;;;3.90
20289;BMP180;10303;51.960;8.372;2024-01-16T07:19:33;99587.00;;;3.90
20289;BMP180;10303;51.960;8.372;2024-01-16T07:22:00;99587.00;;;3.90
20289;BMP180;10303;51.960;8.372;2024-01-16T07:24:26;99590.00;;;3.90
20289;BMP180;10303;51.960;8.372;2024-01-16T07:26:52;99593.00;;;3.90
20289;BMP180;10303;51.960;8.372;2024-01-16T07:29:20;99593.00;;;4.00
20289;BMP180;10303;51.960;8.372;2024-01-16T07:31:46;99589.00;;;4.00
20289;BMP180;10303;51.960;8.372;2024-01-16T07:34:12;99591.00;;;4.00
20289;BMP180;10303;51.960;8.372;2024-01-16T07:36:38;99592.00;;;4.00
20289;BMP180;10303;51.960;8.372;2024-01-16T07:39:04;99602.00;;;4.00
20289;BMP180;10303;51.960;8.372;2024-01-16T07:41:30;99593.00;;;4.00
20289;BMP180;10303;51.960;8.372;2024-01-16T07:43:55;99611.00;;;4.00
20289;BMP180;10303;51.960;8.372;2024-01-16T07:46:21;99602.00;;;4.00
20289;BMP180;10303;51.960;8.372;2024-01-16T07:48:47;99610.00;;;4.00
20289;BMP180;10303;51.960;8.372;2024-01-16T07:51:13;99601.00;;;4.00
20289;BMP180;10303;51.960;8.372;2024-01-16T07:53:39;99599.00;;;3.90
20289;BMP180;10303;51.960;8.372;2024-01-16T07:56:05;99608.00;;;3.90
20289;BMP180;10303;51.960;8.372;2024-01-16T07:58:31;99603.00;;;3.90
20289;BMP180;10303;51.960;8.372;2024-01-16T08:00:57;99616.00;;;3.90
20289;BMP180;10303;51.960;8.372;2024-01-16T08:03:23;99600.00;;;4.00
20289;BMP180;10303;51.960;8.372;2024-01-16T08:05:48;99616.00;;;3.90
20289;BMP180;10303;51.960;8.372;2024-01-16T08:08:14;99611.00;;;3.90
20289;BMP180;10303;51.960;8.372;2024-01-16T08:10:43;99617.00;;;3.90
20289;BMP180;10303;51.960;8.372;2024-01-16T08:13:09;99615.00;;;4.00
20289;BMP180;10303;51.960;8.372;2024-01-16T08:15:36;99620.00;;;4.00
20289;BMP180;10303;51.960;8.372;2024-01-16T08:18:03;99615.00;;;4.00
20289;BMP180;10303;51.960;8.372;2024-01-16T08:20:29;99630.00;;;4.00
20289;BMP180;10303;51.960;8.372;2024-01-16T08:22:55;99625.00;;;4.00
20289;BMP180;10303;51.960;8.372;2024-01-16T08:25:20;99622.00;;;3.90
20289;BMP180;10303;51.960;8.372;2024-01-16T08:27:46;99628.00;;;4.00
20289;BMP180;10303;51.960;8.372;2024-01-16T08:30:13;99629.00;;;3.90
20289;BMP180;10303;51.960;8.372;2024-01-16T08:32:39;99627.00;;;4.00
20289;BMP180;10303;51.960;8.372;2024-01-16T08:35:06;99627.00;;;4.00
20289;BMP180;10303;51.960;8.372;2024-01-16T08:37:33;99632.00;;;4.00
20289;BMP180;10303;51.960;8.372;2024-01-16T08:39:59;99632.00;;;4.00
20289;BMP180;10303;51.960;8.372;2024-01-16T08:42:25;99633.00;;;4.00
20289;BMP180;10303;51.960;8.372;2024-01-16T08:44:51;99628.00;;;4.10
20289;BMP180;10303;51.960;8.372;2024-01-16T08:47:17;99621.00;;;4.10
20289;BMP180;10303;51.960;8.372;2024-01-16T08:49:43;99621.00;;;4.00
20289;BMP180;10303;51.960;8.372;2024-01-16T08:52:09;99632.00;;;4.00
20289;BMP180;10303;51.960;8.372;2024-01-16T08:54:36;99634.00;;;4.00
20289;BMP180;10303;51.960;8.372;2024-01-16T08:57:02;99629.00;;;4.10
20289;BMP180;10303;51.960;8.372;2024-01-16T08:59:28;99640.00;;;4.10
20289;BMP180;10303;51.960;8.372;2024-01-16T09:01:54;99643.00;;;4.00
20289;BMP180;10303;51.960;8.372;2024-01-16T09:04:20;99631.00;;;3.90
20289;BMP180;10303;51.960;8.372;2024-01-16T09:06:46;99644.00;;;3.90
20289;BMP180;10303;51.960;8.372;2024-01-16T09:09:12;99647.00;;;4.00
20289;BMP180;10303;51.960;8.372;2024-01-16T09:11:38;99642.00;;;4.00
20289;BMP180;10303;51.960;8.372;2024-01-16T09:14:04;99634.00;;;4.10
20289;BMP180;10303;51.960;8.372;2024-01-16T09:16:30;99648.00;;;4.10
20289;BMP180;10303;51.960;8.372;2024-01-16T09:18:56;99641.00;;;4.10
20289;BMP180;10303;51.960;8.372;2024-01-16T09:21:22;99635.00;;;4.20
20289;BMP180;10303;51.960;8.372;2024-01-16T09:23:48;99643.00;;;4.20
20289;BMP180;10303;51.960;8.372;2024-01-16T09:26:14;99639.00;;;4.20
20289;BMP180;10303;51.960;8.372;2024-01-16T09:28:40;99639.00;;;4.10
20289;BMP180;10303;51.960;8.372;2024-01-16T09:31:09;99637.00;;;4.10
20289;BMP180;10303;51.960;8.372;2024-01-16T09:33:35;99647.00;;;4.20
20289;BMP180;10303;51.960;8.372;2024-01-16T09:36:01;99649.00;;;4.20
20289;BMP180;10303;51.960;8.372;2024-01-16T09:38:26;99646.00;;;4.20
20289;BMP180;10303;51.960;8.372;2024-01-16T09:40:53;99645.00;;;4.20
20289;BMP180;10303;51.960;8.372;2024-01-16T09:43:22;99642.00;;;4.20
20289;BMP180;10303;51.960;8.372;2024-01-16T09:45:51;99644.00;;;4.10
20289;BMP180;10303;51.960;8.372;2024-01-16T09:48:17;99634.00;;;4.10
20289;BMP180;10303;51.960;8.372;2024-01-16T09:50:43;99647.00;;;4.20
20289;BMP180;10303;51.960;8.372;2024-01-16T09:53:09;99640.00;;;4.20
20289;BMP180;10303;51.960;8.372;2024-01-16T09:55:36;99630.00;;;4.20
20289;BMP180;10303;51.960;8.372;2024-01-16T09:58:05;99640.00;;;4.20
20289;BMP180;10303;51.960;8.372;2024-01-16T10:00:32;99632.00;;;4.20
20289;BMP180;10303;51.960;8.372;2024-01-16T10:03:00;99633.00;;;4.20
20289;BMP180;10303;51.960;8.372;2024-01-16T10:05:26;99631.00;;;4.20
20289;BMP180;10303;51.960;8.372;2024-01-16T10:07:52;99632.00;;;4.20
20289;BMP180;10303;51.960;8.372;2024-01-16T10:10:18;99633.00;;;4.10
20289;BMP180;10303;51.960;8.372;2024-01-16T10:12:46;99637.00;;;4.20
20289;BMP180;10303;51.960;8.372;2024-01-16T10:15:15;99637.00;;;4.20
20289;BMP180;10303;51.960;8.372;2024-01-16T10:17:42;99621.00;;;4.20
20289;BMP180;10303;51.960;8.372;2024-01-16T10:20:11;99630.00;;;4.30
20289;BMP180;10303;51.960;8.372;2024-01-16T10:22:53;99624.00;;;4.30
20289;BMP180;10303;51.960;8.372;2024-01-16T10:25:19;99633.00;;;4.20
20289;BMP180;10303;51.960;8.372;2024-01-16T10:27:47;99626.00;;;4.30
20289;BMP180;10303;51.960;8.372;2024-01-16T10:30:13;99631.00;;;4.30
20289;BMP180;10303;51.960;8.372;2024-01-16T10:32:43;99634.00;;;4.30
20289;BMP180;10303;51.960;8.372;2024-01-16T10:35:11;99634.00;;;4.30
20289;BMP180;10303;51.960;8.372;2024-01-16T10:37:46;99630.00;;;4.30
20289;BMP180;10303;51.960;8.372;2024-01-16T10:40:18;99632.00;;;4.30
20289;BMP180;10303;51.960;8.372;2024-01-16T10:43:07;99617.00;;;4.30
20289;BMP180;10303;51.960;8.372;2024-01-16T10:45:33;99629.00;;;4.00
20289;BMP180;10303;51.960;8.372;2024-01-16T10:48:07;99625.00;;;3.90
20289;BMP180;10303;51.960;8.372;2024-01-16T10:50:35;99600.00;;;4.10
20289;BMP180;10303;51.960;8.372;2024-01-16T10:53:08;99630.00;;;4.00
20289;BMP180;10303;51.960;8.372;2024-01-16T10:55:52;99603.00;;;4.10
20289;BMP180;10303;51.960;8.372;2024-01-16T10:58:24;99620.00;;;4.10
20289;BMP180;10303;51.960;8.372;2024-01-16T11:00:58;99621.00;;;4.20
20289;BMP180;10303;51.960;8.372;2024-01-16T11:03:46;99626.00;;;4.20
20289;BMP180;10303;51.960;8.372;2024-01-16T11:06:16;99619.00;;;4.20
20289;BMP180;10303;51.960;8.372;2024-01-16T11:08:45;99615.00;;;4.20
20289;BMP180;10303;51.960;8.372;2024-01-16T11:11:13;99623.00;;;4.20
20289;BMP180;10303;51.960;8.372;2024-01-16T11:13:40;99631.00;;;4.20
20289;BMP180;10303;51.960;8.372;2024-01-16T11:16:10;99637.00;;;4.20
20289;BMP180;10303;51.960;8.372;2024-01-16T11:18:36;99636.00;;;4.20
20289;BMP180;10303;51.960;8.372;2024-01-16T11:21:07;99624.00;;;4.20
20289;BMP180;10303;51.960;8.372;2024-01-16T11:23:33;99623.00;;;4.20
20289;BMP180;10303;51.960;8.372;2024-01-16T11:28:54;99625.00;;;4.20
20289;BMP180;10303;51.960;8.372;2024-01-16T11:31:33;99630.00;;;4.20
20289;BMP180;10303;51.960;8.372;2024-01-16T11:34:01;99619.00;;;4.20
20289;BMP180;10303;51.960;8.372;2024-01-16T11:36:52;99604.00;;;4.20
20289;BMP180;10303;51.960;8.372;2024-01-16T11:39:24;99616.00;;;4.10
20289;BMP180;10303;51.960;8.372;2024-01-16T11:41:58;99623.00;;;4.10
20289;BMP180;10303;51.960;8.372;2024-01-16T11:47:04;99618.00;;;4.10
20289;BMP180;10303;51.960;8.372;2024-01-16T11:49:30;99605.00;;;4.10
20289;BMP180;10303;51.960;8.372;2024-01-16T11:52:00;99604.00;;;4.10
20289;BMP180;10303;51.960;8.372;2024-01-16T11:54:26;99605.00;;;4.10
20289;BMP180;10303;51.960;8.372;2024-01-16T11:59:59;99607.00;;;4.10
20289;BMP180;10303;51.960;8.372;2024-01-16T12:02:52;99609.00;;;4.10
20289;BMP180;10303;51.960;8.372;2024-01-16T12:05:20;99615.00;;;4.10
20289;BMP180;10303;51.960;8.372;2024-01-16T12:07:48;99605.00;;;4.10
20289;BMP180;10303;51.960;8.372;2024-01-16T12:10:21;99602.00;;;4.10
20289;BMP180;10303;51.960;8.372;2024-01-16T12:12:50;99606.00;;;4.20
20289;BMP180;10303;51.960;8.372;2024-01-16T12:15:21;99606.00;;;4.10
20289;BMP180;10303;51.960;8.372;2024-01-16T12:18:08;99603.00;;;4.10
20289;BMP180;10303;51.960;8.372;2024-01-16T12:20:36;99610.00;;;4.20
20289;BMP180;10303;51.960;8.372;2024-01-16T12:23:06;99616.00;;;4.20
20289;BMP180;10303;51.960;8.372;2024-01-16T12:25:37;99604.00;;;4.20
20289;BMP180;10303;51.960;8.372;2024-01-16T12:28:06;99594.00;;;4.20
20289;BMP180;10303;51.960;8.372;2024-01-16T12:30:37;99601.00;;;4.20
20289;BMP180;10303;51.960;8.372;2024-01-16T12:33:12;99585.00;;;4.20
20289;BMP180;10303;51.960;8.372;2024-01-16T12:35:43;99582.00;;;4.20
20289;BMP180;10303;51.960;8.372;2024-01-16T12:38:13;99569.00;;;4.30
20289;BMP180;10303;51.960;8.372;2024-01-16T12:40:48;99571.00;;;4.30
20289;BMP180;10303;51.960;8.372;2024-01-16T12:43:17;99554.00;;;4.30
20289;BMP180;10303;51.960;8.372;2024-01-16T12:45:44;99564.00;;;4.30
20289;BMP180;10303;51.960;8.372;2024-01-16T12:48:11;99565.00;;;4.30
20289;BMP180;10303;51.960;8.372;2024-01-16T12:50:37;99569.00;;;4.30
20289;BMP180;10303;51.960;8.372;2024-01-16T12:53:10;99545.00;;;4.30
20289;BMP180;10303;51.960;8.372;2024-01-16T12:55:39;99556.00;;;4.30
20289;BMP180;10303;51.960;8.372;2024-01-16T12:58:22;99553.00;;;4.30
20289;BMP180;10303;51.960;8.372;2024-01-16T13:00:53;99543.00;;;4.30
20289;BMP180;10303;51.960;8.372;2024-01-16T13:03:24;99546.00;;;4.30
20289;BMP180;10303;51.960;8.372;2024-01-16T13:06:01;99540.00;;;4.30
20289;BMP180;10303;51.960;8.372;2024-01-16T13:08:27;99541.00;;;4.40
20289;BMP180;10303;51.960;8.372;2024-01-16T13:11:06;99548.00;;;4.30
20289;BMP180;10303;51.960;8.372;2024-01-16T13:13:33;99552.00;;;4.40
20289;BMP180;10303;51.960;8.372;2024-01-16T13:16:03;99540.00;;;4.40
20289;BMP180;10303;51.960;8.372;2024-01-16T13:18:30;99531.00;;;4.40
20289;BMP180;10303;51.960;8.372;2024-01-16T13:20:58;99540.00;;;4.40
20289;BMP180;10303;51.960;8.372;2024-01-16T13:23:26;99534.00;;;4.40
20289;BMP180;10303;51.960;8.372;2024-01-16T13:25:54;99541.00;;;4.50
20289;BMP180;10303;51.960;8.372;2024-01-16T13:28:27;99533.00;;;4.50
20289;BMP180;10303;51.960;8.372;2024-01-16T13:30:55;99537.00;;;4.50
20289;BMP180;10303;51.960;8.372;2024-01-16T13:33:24;99542.00;;;4.50
20289;BMP180;10303;51.960;8.372;2024-01-16T13:35:53;99531.00;;;4.50
20289;BMP180;10303;51.960;8.372;2024-01-16T13:38:22;99539.00;;;4.60
20289;BMP180;10303;51.960;8.372;2024-01-16T13:40:49;99533.00;;;4.50
20289;BMP180;10303;51.960;8.372;2024-01-16T13:43:17;99531.00;;;4.60
20289;BMP180;10303;51.960;8.372;2024-01-16T13:45:43;99536.00;;;4.60
20289;BMP180;10303;51.960;8.372;2024-01-16T13:48:09;99531.00;;;4.60
20289;BMP180;10303;51.960;8.372;2024-01-16T13:50:35;99530.00;;;4.60
20289;BMP180;10303;51.960;8.372;2024-01-16T13:53:02;99529.00;;;4.60
20289;BMP180;10303;51.960;8.372;2024-01-16T13:55:29;99528.00;;;4.70
20289;BMP180;10303;51.960;8.372;2024-01-16T13:58:00;99526.00;;;4.60
20289;BMP180;10303;51.960;8.372;2024-01-16T14:00:27;99521.00;;;4.70
20289;BMP180;10303;51.960;8.372;2024-01-16T14:02:53;99518.00;;;4.70
20289;BMP180;10303;51.960;8.372;2024-01-16T14:05:21;99515.00;;;4.70
20289;BMP180;10303;51.960;8.372;2024-01-16T14:07:51;99515.00;;;4.70
20289;BMP180;10303;51.960;8.372;2024-01-16T14:10:20;99516.00;;;4.70
20289;BMP180;10303;51.960;8.372;2024-01-16T14:12:49;99505.00;;;4.70
20289;BMP180;10303;51.960;8.372;2024-01-16T14:15:19;99504.00;;;4.70
20289;BMP180;10303;51.960;8.372;2024-01-16T14:17:52;99497.00;;;4.70
20289;BMP180;10303;51.960;8.372;2024-01-16T14:20:20;99499.00;;;4.80
20289;BMP180;10303;51.960;8.372;2024-01-16T14:22:53;99498.00;;;4.70
20289;BMP180;10303;51.960;8.372;2024-01-16T14:25:20;99494.00;;;4.80
20289;BMP180;10303;51.960;8.372;2024-01-16T14:28:00;99514.00;;;4.90
20289;BMP180;10303;51.960;8.372;2024-01-16T14:30:31;99506.00;;;4.90